Time;durP1;ratioP1;P1;durP2;ratioP2;P2;SDS_P1;SDS_P2;PMS_P1;PMS_P2;Temp;Humidity;BMP_temperature;BMP_pressure;BME280_temperature;BME280_humidity;BME280_pressure;Samples;Min_cycle;Max_cycle;Signal;HPM_P1;HPM_P2
2022/11/06 13:52:49;;;;;;;0.60;0.60;;;15.70;75.90;;;15.61;62.72;94947.41;5071674;28;20534;-77
2022/11/06 13:55:59;;;;;;;0.60;0.60;;;15.70;77.10;;;16.34;61.83;94942.16;5018355;28;20224;-78
2022/11/06 14:05:02;;;;;;;0.60;0.60;;;17.10;76.10;;;18.27;58.49;94928.16;5370575;23;20583;-76
2022/11/06 14:07:32;;;;;;;0.63;0.63;;;17.70;75.50;;;18.65;57.91;94924.03;4951907;29;20250;-76
2022/11/06 14:09:59;;;;;;;0.50;0.50;;;18.10;74.90;;;18.97;57.51;94912.00;4936769;29;20207;-76
2022/11/06 14:12:27;;;;;;;0.50;0.50;;;18.50;74.50;;;19.27;57.50;94919.56;4936980;29;20257;-76
2022/11/06 14:15:27;;;;;;;0.35;0.35;;;18.80;74.00;;;19.56;56.61;94910.63;4953309;29;20709;-76
2022/11/06 14:17:58;;;;;;;0.60;0.60;;;19.10;73.40;;;19.76;56.29;94896.75;4921610;29;20588;-76
2022/11/06 14:20:31;;;;;;;0.40;0.40;;;19.40;73.20;;;20.00;55.89;94892.75;4953149;29;20180;-76
2022/11/06 14:23:50;;;;;;;0.43;0.43;;;19.60;72.70;;;20.19;55.54;94889.75;4937224;29;20298;-76
2022/11/06 14:26:41;;;;;;;0.57;0.57;;;19.80;72.30;;;20.38;54.81;94881.38;4933413;29;20630;-76
2022/11/06 14:29:27;;;;;;;0.50;0.50;;;20.10;72.00;;;20.55;54.94;94881.25;4937039;29;20210;-76
2022/11/06 14:32:17;;;;;;;0.40;0.40;;;20.20;71.70;;;20.69;54.26;94887.75;4952921;29;20249;-76
2022/11/06 14:34:44;;;;;;;0.50;0.50;;;20.40;71.40;;;20.81;54.26;94881.44;4952910;28;20363;-76
2022/11/06 14:37:18;;;;;;;0.50;0.50;;;20.50;71.20;;;20.92;53.62;94880.44;4936766;29;20199;-76
2022/11/06 14:39:54;;;;;;;0.40;0.40;;;20.60;70.80;;;21.03;53.37;94875.97;4952735;28;20280;-76
2022/11/06 14:42:41;;;;;;;0.40;0.40;;;20.70;70.60;;;21.10;53.35;94877.34;4952658;29;20304;-76
2022/11/06 14:45:17;;;;;;;0.40;0.40;;;20.80;70.50;;;21.18;53.03;94870.72;4937259;29;20189;-76
2022/11/06 14:47:45;;;;;;;0.40;0.40;;;20.90;70.30;;;21.26;53.31;94874.75;4936805;29;20550;-76
2022/11/06 14:50:18;;;;;;;0.50;0.50;;;21.00;70.20;;;21.33;53.13;94869.97;4952508;28;20219;-76
2022/11/06 14:52:51;;;;;;;0.40;0.40;;;21.10;69.90;;;21.40;52.59;94873.22;4952905;29;20178;-76
2022/11/06 14:55:31;;;;;;;0.50;0.50;;;21.20;70.00;;;21.45;52.67;94872.44;4937013;29;20192;-76
2022/11/06 14:58:22;;;;;;;0.50;0.50;;;21.20;69.60;;;21.50;52.25;94874.31;4936473;29;20628;-76
2022/11/06 15:01:08;;;;;;;0.50;0.50;;;21.30;69.60;;;21.54;52.59;94870.06;4936774;29;20208;-76
2022/11/06 15:03:53;;;;;;;0.40;0.40;;;21.40;69.30;;;21.58;52.16;94865.81;4941113;28;20237;-77
2022/11/06 15:06:42;;;;;;;0.43;0.43;;;21.40;69.20;;;21.63;51.82;94865.03;4923724;29;20280;-76
2022/11/06 15:09:27;;;;;;;0.40;0.40;;;21.50;69.10;;;21.65;51.83;94858.38;4924736;29;20561;-76
2022/11/06 15:11:59;;;;;;;0.52;0.52;;;21.50;69.00;;;21.61;51.79;94851.16;4939495;29;20226;-76
2022/11/06 15:14:32;;;;;;;0.50;0.50;;;21.50;68.90;;;21.73;51.58;94863.19;4939834;29;20243;-76
2022/11/06 15:17:13;;;;;;;0.50;0.50;;;21.60;68.70;;;21.76;51.72;94859.19;4939259;29;20210;-76
2022/11/06 15:20:04;;;;;;;0.50;0.50;;;21.60;68.60;;;21.78;51.56;94856.28;4923797;29;20208;-76
2022/11/06 15:22:40;;;;;;;0.40;0.40;;;21.60;68.50;;;21.80;51.10;94852.28;4923933;29;20188;-77
2022/11/06 15:25:26;;;;;;;0.52;0.52;;;21.70;68.50;;;21.82;51.31;94855.47;4923501;29;20705;-77
2022/11/06 15:28:18;;;;;;;0.40;0.40;;;21.70;68.30;;;21.83;50.89;94845.59;4923370;29;20265;-76
2022/11/06 15:30:59;;;;;;;0.40;0.40;;;21.70;68.30;;;21.79;51.12;94836.50;4924638;29;20213;-77
2022/11/06 15:33:51;;;;;;;0.40;0.40;;;21.70;68.20;;;21.86;51.06;94843.22;4924609;29;20195;-77
2022/11/06 15:36:23;;;;;;;0.52;0.52;;;21.70;68.00;;;21.84;51.09;94825.84;4909578;29;20211;-74
2022/11/06 15:38:53;;;;;;;0.40;0.40;;;21.70;68.00;;;21.89;50.95;94825.84;4940233;29;20247;-78
2022/11/06 15:41:24;;;;;;;0.40;0.40;;;21.70;68.00;;;21.91;50.80;94831.75;4938970;29;20203;-75
2022/11/06 15:43:58;;;;;;;0.50;0.50;;;21.70;67.80;;;21.89;50.66;94823.97;4923858;29;20199;-76
2022/11/06 15:46:29;;;;;;;0.40;0.40;;;21.80;67.70;;;21.94;50.73;94833.06;4923619;29;20598;-75
2022/11/06 15:49:17;;;;;;;0.43;0.43;;;21.80;67.70;;;21.94;50.66;94828.53;4923739;29;20211;-77
2022/11/06 15:52:01;;;;;;;0.40;0.40;;;21.80;67.70;;;21.93;50.48;94821.56;4923366;29;20230;-79
2022/11/06 15:54:40;;;;;;;0.40;0.40;;;21.80;67.50;;;21.95;50.43;94821.31;4923612;29;20264;-76
2022/11/06 15:57:22;;;;;;;0.40;0.40;;;21.90;67.60;;;21.94;50.40;94815.16;4923355;29;20196;-76
2022/11/06 15:59:50;;;;;;;0.30;0.30;;;21.80;67.30;;;21.96;50.16;94809.56;4923056;29;20248;-76
2022/11/06 16:02:21;;;;;;;0.45;0.45;;;21.80;67.50;;;21.97;50.33;94808.50;4938692;29;20196;-75
2022/11/06 16:04:50;;;;;;;0.40;0.40;;;21.90;67.40;;;21.98;50.37;94810.88;4922876;29;20256;-75
2022/11/06 16:07:18;;;;;;;0.40;0.40;;;21.90;67.40;;;21.98;50.29;94804.75;4922946;29;20306;-75
2022/11/06 16:09:46;;;;;;;0.50;0.50;;;21.80;67.30;;;22.00;50.35;94799.97;4922836;29;20200;-76
2022/11/06 16:12:16;;;;;;;0.50;0.50;;;21.80;67.20;;;22.00;50.00;94799.97;4922984;29;20254;-75
2022/11/06 16:14:44;;;;;;;0.50;0.50;;;21.80;67.20;;;21.94;50.17;94799.16;4921769;29;20204;-75
2022/11/06 16:17:25;;;;;;;0.43;0.43;;;21.90;67.10;;;22.02;49.62;94800.47;4938453;29;20207;-76
2022/11/06 16:19:57;;;;;;;0.43;0.43;;;21.90;67.00;;;22.02;49.89;94811.16;4938385;29;20585;-76
2022/11/06 16:22:30;;;;;;;0.35;0.35;;;21.90;66.90;;;22.03;49.77;94810.91;4923105;29;20202;-76
2022/11/06 16:25:02;;;;;;;0.40;0.40;;;21.80;66.80;;;22.02;49.99;94811.16;4938225;29;20184;-76
2022/11/06 16:27:35;;;;;;;0.40;0.40;;;21.90;66.80;;;22.02;50.07;94805.81;4922394;29;20191;-76
2022/11/06 16:30:05;;;;;;;0.43;0.43;;;21.90;66.80;;;22.04;49.61;94811.69;4938308;29;20191;-76
2022/11/06 16:32:40;;;;;;;0.40;0.40;;;21.90;66.80;;;22.02;49.51;94813.81;4922252;29;20227;-76
2022/11/06 16:35:36;;;;;;;0.40;0.40;;;21.90;66.70;;;22.00;49.74;94810.66;4937951;29;20545;-76
2022/11/06 16:38:15;;;;;;;0.40;0.40;;;21.90;66.70;;;22.01;49.75;94814.91;4922127;29;20274;-76
2022/11/06 16:41:04;;;;;;;0.40;0.40;;;21.90;67.50;;;21.99;49.93;94817.06;4938933;29;20526;-76
2022/11/06 16:43:31;;;;;;;0.45;0.45;;;21.90;66.70;;;22.00;49.68;94811.44;4921995;29;20217;-76
2022/11/06 16:46:08;;;;;;;0.40;0.40;;;21.90;66.60;;;22.02;49.46;94816.50;4922399;29;20203;-76
2022/11/06 16:48:39;;;;;;;0.40;0.40;;;21.90;66.50;;;22.01;49.33;94815.72;4922744;29;20196;-76
2022/11/06 16:51:08;;;;;;;0.30;0.30;;;21.90;66.50;;;22.02;49.34;94824.50;4921850;29;20219;-76
2022/11/06 16:53:59;;;;;;;0.40;0.40;;;21.90;66.50;;;22.01;49.27;94825.59;4937740;29;20199;-76
2022/11/06 16:56:33;;;;;;;0.40;0.40;;;21.80;66.40;;;22.00;49.37;94824.00;4921826;29;20677;-76
2022/11/06 16:59:14;;;;;;;0.40;0.40;;;21.90;66.40;;;21.96;49.20;94814.91;4937522;29;20607;-76
2022/11/06 17:01:44;;;;;;;0.40;0.40;;;21.90;66.30;;;21.98;49.26;94815.44;4921828;29;20204;-76
2022/11/06 17:04:25;;;;;;;0.40;0.40;;;21.90;66.30;;;21.98;49.45;94816.22;4921694;29;20262;-76
2022/11/06 17:06:53;;;;;;;0.40;0.40;;;21.90;66.20;;;22.00;49.34;94818.66;4921957;29;20216;-76
2022/11/06 17:09:34;;;;;;;0.40;0.40;;;21.90;66.30;;;21.98;49.08;94813.56;4937241;29;20581;-76
2022/11/06 17:12:02;;;;;;;0.40;0.40;;;21.90;66.10;;;21.98;49.28;94810.09;4937273;29;20208;-76
2022/11/06 17:14:31;;;;;;;0.40;0.40;;;21.90;66.30;;;21.97;49.47;94819.19;4937318;29;20218;-76
2022/11/06 17:17:00;;;;;;;0.40;0.40;;;21.90;66.30;;;21.97;48.89;94825.34;4921514;29;20214;-76
2022/11/06 17:19:28;;;;;;;0.40;0.40;;;21.90;66.10;;;21.98;49.29;94821.56;4921629;29;20748;-76
2022/11/06 17:21:57;;;;;;;0.40;0.40;;;21.90;66.20;;;21.97;49.41;94817.31;4921549;29;20198;-76
2022/11/06 17:24:24;;;;;;;0.40;0.40;;;21.90;66.10;;;21.98;49.21;94808.22;4921491;29;20199;-76
2022/11/06 17:27:07;;;;;;;0.40;0.40;;;21.90;66.10;;;21.95;48.74;94802.59;4923654;29;20232;-76
2022/11/06 17:29:35;;;;;;;0.40;0.40;;;21.90;66.00;;;21.97;48.80;94809.31;4921257;29;20306;-76
2022/11/06 17:32:02;;;;;;;0.40;0.40;;;21.90;66.00;;;21.98;48.78;94812.78;4937009;29;20294;-76
2022/11/06 17:34:30;;;;;;;0.43;0.43;;;21.80;66.00;;;21.97;48.89;94816.50;4921264;29;20206;-76
2022/11/06 17:36:57;;;;;;;0.40;0.40;;;21.90;66.00;;;21.99;49.00;94825.84;4905370;29;20279;-76
2022/11/06 17:39:25;;;;;;;0.40;0.40;;;21.90;66.00;;;21.97;49.11;94817.31;4921176;29;20517;-76
2022/11/06 17:41:53;;;;;;;0.40;0.40;;;21.90;66.00;;;21.93;49.09;94808.22;4921162;29;20717;-76
2022/11/06 17:44:21;;;;;;;0.40;0.40;;;21.80;65.90;;;21.98;49.05;94813.56;4936923;29;20195;-76
2022/11/06 17:46:48;;;;;;;0.47;0.47;;;21.90;65.90;;;21.97;49.11;94813.84;4905570;29;20235;-76
2022/11/06 17:49:16;;;;;;;0.30;0.30;;;21.90;65.90;;;21.96;48.95;94802.38;4921082;29;20203;-76
2022/11/06 17:51:49;;;;;;;0.40;0.40;;;21.90;65.90;;;21.96;49.00;94805.03;4921223;29;20230;-76
2022/11/06 17:54:18;;;;;;;0.43;0.43;;;21.90;65.70;;;21.97;48.69;94795.13;4921475;29;20214;-76
2022/11/06 17:56:46;;;;;;;0.30;0.30;;;21.90;65.70;;;21.96;48.82;94801.53;4921071;29;20602;-76
2022/11/06 17:59:13;;;;;;;0.30;0.30;;;21.90;65.70;;;21.94;48.53;94793.81;4936849;29;20270;-76
2022/11/06 18:01:41;;;;;;;0.40;0.40;;;21.80;65.70;;;21.95;48.64;94789.25;4936944;29;20199;-76
2022/11/06 18:04:08;;;;;;;0.38;0.38;;;21.80;65.70;;;21.97;48.72;94784.47;4920834;29;20313;-76
2022/11/06 18:06:36;;;;;;;0.32;0.32;;;21.90;65.70;;;21.93;48.69;94776.19;4921059;29;20203;-76
2022/11/06 18:09:06;;;;;;;0.38;0.38;;;21.90;65.70;;;21.96;48.83;94767.66;4936564;29;20205;-76
2022/11/06 18:11:33;;;;;;;0.40;0.40;;;21.90;65.60;;;21.96;48.45;94775.66;4920829;29;20222;-76
2022/11/06 18:14:01;;;;;;;0.50;0.50;;;21.90;65.60;;;21.97;48.37;94773.78;4937495;29;20232;-76
2022/11/06 18:16:32;;;;;;;0.40;0.40;;;21.90;65.60;;;21.95;48.87;94768.72;4936644;29;20195;-76
2022/11/06 18:19:00;;;;;;;0.40;0.40;;;21.90;65.50;;;21.95;48.56;94774.06;4920750;29;20202;-76
2022/11/06 18:21:27;;;;;;;0.47;0.47;;;21.90;65.60;;;21.95;48.70;94770.56;4920838;29;20215;-76
2022/11/06 18:23:54;;;;;;;0.40;0.40;;;21.90;65.50;;;21.94;48.40;94768.97;4936598;29;20205;-76
2022/11/06 18:26:21;;;;;;;0.45;0.45;;;21.80;65.40;;;21.95;48.78;94771.38;4937693;29;20198;-76
2022/11/06 18:28:49;;;;;;;0.45;0.45;;;21.80;65.30;;;21.94;48.27;94769.78;4905298;29;20200;-75
2022/11/06 18:31:18;;;;;;;0.43;0.43;;;21.80;65.30;;;21.94;48.20;94769.78;4920868;29;20285;-74
2022/11/06 18:33:45;;;;;;;0.35;0.35;;;21.90;65.40;;;21.93;48.50;94773.50;4905098;29;20207;-76
2022/11/06 18:36:14;;;;;;;0.50;0.50;;;21.80;65.30;;;21.94;48.69;94763.66;4920730;29;20295;-76
2022/11/06 18:38:42;;;;;;;0.40;0.40;;;21.90;65.30;;;21.91;48.38;94763.09;4939018;29;20506;-76
2022/11/06 18:41:16;;;;;;;0.30;0.30;;;21.80;65.30;;;21.91;48.41;94762.31;4924593;29;20191;-75
2022/11/06 18:43:44;;;;;;;0.40;0.40;;;21.90;65.20;;;21.92;48.62;94763.88;4924510;29;20619;-75
2022/11/06 18:47:16;;;;;;;0.30;0.30;;;21.90;65.30;;;21.88;48.33;94770.84;4925184;29;20271;-74
2022/11/06 18:49:43;;;;;;;0.40;0.40;;;21.80;65.30;;;21.86;48.73;94767.63;4916468;29;20247;-74
2022/11/06 18:52:10;;;;;;;0.30;0.30;;;21.90;65.20;;;21.87;48.58;94767.38;4917657;29;20729;-77
2022/11/06 18:54:38;;;;;;;0.40;0.40;;;21.80;65.20;;;21.86;48.22;94760.44;4917603;29;20223;-75
2022/11/06 18:57:05;;;;;;;0.40;0.40;;;21.80;65.20;;;21.83;48.35;94755.63;4902402;29;20223;-76
2022/11/06 18:59:33;;;;;;;0.40;0.40;;;21.80;65.10;;;21.82;48.04;94754.00;4901877;29;20241;-76
2022/11/06 19:02:00;;;;;;;0.40;0.40;;;21.80;65.10;;;21.87;48.20;94762.03;4901774;29;20208;-76
2022/11/06 19:04:28;;;;;;;0.40;0.40;;;21.80;65.00;;;21.85;48.49;94753.50;4902618;29;20220;-74
2022/11/06 19:06:55;;;;;;;0.50;0.50;;;21.80;65.10;;;21.87;48.38;94763.91;4917373;29;20223;-74
2022/11/06 19:09:22;;;;;;;0.47;0.47;;;21.80;65.10;;;21.88;48.24;94765.50;4902439;29;20767;-76
2022/11/06 19:11:49;;;;;;;0.50;0.50;;;21.80;65.00;;;21.82;47.92;94754.00;4901778;29;20612;-76
2022/11/06 19:14:17;;;;;;;0.40;0.40;;;21.80;65.00;;;21.87;48.39;94747.88;4901627;29;20201;-77
2022/11/06 19:16:44;;;;;;;0.40;0.40;;;21.80;65.00;;;21.87;48.13;94745.19;4902400;29;20207;-75
2022/11/06 19:19:11;;;;;;;0.32;0.32;;;21.80;64.90;;;21.87;47.66;94740.69;4916986;29;20193;-74
2022/11/06 19:21:44;;;;;;;0.30;0.30;;;21.80;64.90;;;21.84;47.92;94740.41;4901761;29;20218;-75
2022/11/06 19:24:12;;;;;;;0.40;0.40;;;21.80;64.90;;;21.86;48.36;94744.41;4901584;29;20598;-74
2022/11/06 19:26:39;;;;;;;0.40;0.40;;;21.80;64.90;;;21.85;48.17;94750.00;4901721;29;20644;-75
2022/11/06 19:29:08;;;;;;;0.40;0.40;;;21.80;64.90;;;21.86;48.46;94746.28;4901788;29;20196;-77
2022/11/06 19:31:36;;;;;;;0.30;0.30;;;21.80;64.90;;;21.85;48.09;94750.00;4916994;29;20536;-75
2022/11/06 19:34:07;;;;;;;0.40;0.40;;;21.80;65.00;;;21.84;47.88;94751.88;4901570;29;20547;-75
2022/11/06 19:36:35;;;;;;;0.30;0.30;;;21.80;64.90;;;21.84;47.87;94748.44;4901433;29;20193;-77
2022/11/06 19:39:03;;;;;;;0.30;0.30;;;21.80;65.00;;;21.84;47.92;94748.44;4901079;29;20201;-75
2022/11/06 19:41:31;;;;;;;0.40;0.40;;;21.70;64.80;;;21.81;48.33;94747.06;4901794;29;20199;-77
2022/11/06 19:44:00;;;;;;;0.40;0.40;;;21.80;64.90;;;21.85;47.87;94747.34;4901334;29;20305;-77
2022/11/06 19:46:27;;;;;;;0.40;0.40;;;21.80;64.90;;;21.84;47.80;94749.22;4901152;29;20204;-76
2022/11/06 19:49:04;;;;;;;0.40;0.40;;;21.80;64.90;;;21.84;47.83;94743.09;4900688;29;20254;-76
2022/11/06 19:51:32;;;;;;;0.30;0.30;;;21.80;64.90;;;21.84;47.99;94745.75;4900973;29;20220;-77
2022/11/06 19:54:04;;;;;;;0.50;0.50;;;21.70;64.80;;;21.84;47.68;94740.41;4900882;29;20230;-76
2022/11/06 19:56:32;;;;;;;0.40;0.40;;;21.80;64.90;;;21.83;47.95;94744.94;4900884;29;20204;-76
2022/11/06 19:59:00;;;;;;;0.40;0.40;;;21.80;64.90;;;21.82;47.84;94750.56;4900929;29;20596;-74
2022/11/06 20:01:28;;;;;;;0.30;0.30;;;21.80;64.90;;;21.82;47.84;94743.31;4900858;29;20631;-74
2022/11/06 20:03:55;;;;;;;0.50;0.50;;;21.80;64.90;;;21.82;47.83;94746.00;4900626;29;20208;-75
2022/11/06 20:06:22;;;;;;;0.30;0.30;;;21.80;64.90;;;21.81;47.96;94748.94;4900762;29;20216;-76
2022/11/06 20:08:49;;;;;;;0.40;0.40;;;21.80;64.90;;;21.82;47.81;94746.00;4900470;29;20211;-76
2022/11/06 20:11:17;;;;;;;0.40;0.40;;;21.70;64.80;;;21.78;47.69;94738.81;4916450;29;20204;-76
2022/11/06 20:13:45;;;;;;;0.40;0.40;;;21.80;64.90;;;21.80;47.86;94747.34;4901245;29;20237;-76
2022/11/06 20:16:16;;;;;;;0.30;0.30;;;21.70;64.80;;;21.81;47.72;94748.94;4900592;29;20193;-75
2022/11/06 20:18:54;;;;;;;0.30;0.30;;;21.70;64.80;;;21.80;47.97;94752.69;4900475;29;20528;-77
2022/11/06 20:21:26;;;;;;;0.40;0.40;;;21.70;64.80;;;21.76;47.63;94744.41;4900300;29;20204;-76
2022/11/06 20:23:55;;;;;;;0.38;0.38;;;21.70;64.80;;;21.79;47.49;94757.22;4900387;29;20202;-76
2022/11/06 20:26:23;;;;;;;0.40;0.40;;;21.70;64.80;;;21.74;47.63;94749.22;4901102;29;20210;-76
2022/11/06 20:28:50;;;;;;;0.40;0.40;;;21.70;64.80;;;21.78;47.90;94754.84;4915626;29;20212;-76
2022/11/06 20:31:18;;;;;;;0.30;0.30;;;21.70;64.80;;;21.78;47.76;94755.63;4900067;29;20215;-76
2022/11/06 20:33:46;;;;;;;0.40;0.40;;;21.70;64.80;;;21.74;47.78;94755.34;4900008;29;20224;-76
2022/11/06 20:36:23;;;;;;;0.40;0.40;;;21.70;64.80;;;21.78;47.57;94762.84;4900143;29;20275;-76
2022/11/06 20:38:57;;;;;;;0.43;0.43;;;21.70;64.80;;;21.77;47.51;94759.34;4899761;29;20557;-76
2022/11/06 20:41:26;;;;;;;0.50;0.50;;;21.70;64.80;;;21.77;47.77;94756.69;4900045;29;20184;-75
2022/11/06 20:43:54;;;;;;;0.40;0.40;;;21.70;64.80;;;21.77;47.84;94759.34;4899902;29;20204;-76
2022/11/06 20:46:22;;;;;;;0.40;0.40;;;21.70;64.80;;;21.77;47.63;94769.25;4915515;29;20658;-76
2022/11/06 20:48:50;;;;;;;0.40;0.40;;;21.70;64.80;;;21.76;47.83;94763.09;4915120;29;20241;-76
2022/11/06 20:51:22;;;;;;;0.40;0.40;;;21.70;64.80;;;21.75;47.67;94770.31;4899802;29;20549;-76
2022/11/06 20:53:50;;;;;;;0.40;0.40;;;21.70;64.80;;;21.76;47.64;94768.44;4900456;29;20256;-77
2022/11/06 20:56:21;;;;;;;0.40;0.40;;;21.70;64.80;;;21.67;47.85;94757.47;4916151;29;20204;-77
2022/11/06 20:58:48;;;;;;;0.30;0.30;;;21.70;64.80;;;21.75;47.48;94770.31;4900523;29;20203;-77
2022/11/06 21:01:19;;;;;;;0.50;0.50;;;21.70;64.80;;;21.74;47.43;94760.69;4900385;29;20204;-77
2022/11/06 21:03:48;;;;;;;0.30;0.30;;;21.70;64.80;;;21.74;47.63;94755.34;4916105;29;20211;-75
2022/11/06 21:06:18;;;;;;;0.40;0.40;;;21.70;64.80;;;21.74;47.33;94754.56;4899620;29;20196;-74
2022/11/06 21:08:46;;;;;;;0.40;0.40;;;21.70;64.80;;;21.74;47.51;94760.69;4915005;29;20286;-74
2022/11/06 21:11:18;;;;;;;0.43;0.43;;;21.70;64.80;;;21.74;47.40;94757.22;4899542;29;20230;-74
2022/11/06 21:13:48;;;;;;;0.40;0.40;;;21.70;65.30;;;21.74;47.61;94752.69;4899363;29;20235;-76
2022/11/06 21:16:17;;;;;;;0.50;0.50;;;21.70;64.80;;;21.73;47.46;94758.28;4899318;29;20219;-76
2022/11/06 21:18:45;;;;;;;0.35;0.35;;;21.70;64.80;;;21.74;47.29;94754.56;4914906;29;20200;-76
2022/11/06 21:21:16;;;;;;;0.40;0.40;;;21.70;64.80;;;21.71;47.23;94757.75;4899408;29;20636;-75
2022/11/06 21:23:43;;;;;;;0.30;0.30;;;21.70;64.80;;;21.71;47.34;94755.09;4899623;29;20185;-76
2022/11/06 21:26:18;;;;;;;0.40;0.40;;;21.70;64.80;;;21.69;47.40;94751.88;4884462;29;20215;-76
2022/11/06 21:28:45;;;;;;;0.40;0.40;;;21.70;64.80;;;21.72;47.50;94754.03;4899052;29;20286;-76
2022/11/06 21:31:24;;;;;;;0.50;0.50;;;21.60;64.80;;;21.71;47.16;94757.75;4899323;29;20201;-76
2022/11/06 21:33:54;;;;;;;0.30;0.30;;;21.70;64.80;;;21.70;47.42;94761.47;4914792;29;20219;-76
2022/11/06 21:36:34;;;;;;;0.50;0.50;;;21.60;64.70;;;21.67;47.25;94749.47;4914938;29;20220;-76
2022/11/06 21:39:11;;;;;;;0.40;0.40;;;21.60;64.80;;;21.67;47.31;94752.13;4914682;29;20617;-76
2022/11/06 21:41:38;;;;;;;0.40;0.40;;;21.70;64.80;;;21.67;47.28;94752.13;4899151;29;20259;-76
2022/11/06 21:44:07;;;;;;;0.30;0.30;;;21.60;65.70;;;21.68;47.21;94747.59;4899176;29;20203;-76
2022/11/06 21:46:34;;;;;;;0.40;0.40;;;21.60;64.70;;;21.68;47.34;94748.41;4899080;29;20301;-76
2022/11/06 21:49:06;;;;;;;0.40;0.40;;;21.60;64.80;;;21.68;47.65;94743.06;4898789;29;20235;-76
2022/11/06 21:51:33;;;;;;;0.60;0.60;;;21.60;64.80;;;21.65;47.30;94735.59;4914628;29;20247;-76
2022/11/06 21:56:49;;;;;;;0.40;0.40;;;21.60;64.70;;;21.66;47.56;94749.75;4898885;29;20204;-76
2022/11/06 21:59:22;;;;;;;0.40;0.40;;;21.60;64.80;;;21.65;47.54;94745.47;4914408;29;20650;-76
2022/11/06 22:01:49;;;;;;;0.43;0.43;;;21.60;64.70;;;21.59;47.44;94734.78;4883482;29;20230;-76
2022/11/06 22:04:16;;;;;;;0.40;0.40;;;21.60;64.80;;;21.64;47.09;94744.69;4884301;29;20201;-77
2022/11/06 22:06:43;;;;;;;0.40;0.40;;;21.60;64.80;;;21.65;47.41;94740.13;4899455;29;20211;-76
2022/11/06 22:09:13;;;;;;;0.40;0.40;;;21.60;64.80;;;21.65;47.96;94746.25;4898836;29;20628;-77
2022/11/06 22:11:42;;;;;;;0.40;0.40;;;21.60;64.80;;;21.64;47.46;94741.19;4883680;29;20281;-76
2022/11/06 22:14:15;;;;;;;0.40;0.40;;;21.60;64.80;;;21.65;47.50;94745.47;4902977;29;20687;-77
2022/11/06 22:16:45;;;;;;;0.40;0.40;;;21.60;64.80;;;21.64;46.96;94750.03;4919016;29;20607;-77
2022/11/06 22:19:14;;;;;;;0.40;0.40;;;21.60;64.70;;;21.61;47.06;94739.84;4918816;29;20196;-77
2022/11/06 22:21:42;;;;;;;0.40;0.40;;;21.60;64.80;;;21.63;47.08;94735.06;4887429;29;20208;-77
2022/11/06 22:24:12;;;;;;;0.40;0.40;;;21.60;64.70;;;21.64;47.15;94733.19;4902665;29;20346;-77
2022/11/06 22:26:39;;;;;;;0.40;0.40;;;21.60;64.70;;;21.62;47.02;94730.78;4902376;29;20269;-76
2022/11/06 22:29:11;;;;;;;0.55;0.55;;;21.60;64.70;;;21.64;47.18;94736.66;4888957;29;20216;-76
2022/11/06 22:31:38;;;;;;;0.50;0.50;;;21.60;64.80;;;21.65;47.22;94732.13;4902409;29;20203;-76
2022/11/06 22:34:11;;;;;;;0.40;0.40;;;21.60;64.80;;;21.58;46.95;94730.53;4887378;29;20233;-76
2022/11/06 22:36:39;;;;;;;0.50;0.50;;;21.60;64.80;;;21.63;46.95;94740.41;4902889;29;20196;-77
2022/11/06 22:39:07;;;;;;;0.30;0.30;;;21.50;64.70;;;21.63;47.05;94736.91;4886847;29;20531;-77
2022/11/06 22:41:36;;;;;;;0.43;0.43;;;21.50;64.70;;;21.62;47.00;94733.47;4902348;29;20304;-76
2022/11/06 22:44:05;;;;;;;0.50;0.50;;;21.60;64.80;;;21.60;46.99;94732.91;4917693;29;20208;-76
2022/11/06 22:46:32;;;;;;;0.40;0.40;;;21.60;64.70;;;21.61;47.07;94733.72;4902129;29;20211;-76
2022/11/06 22:49:00;;;;;;;0.40;0.40;;;21.60;64.80;;;21.62;47.38;94732.63;4901738;29;20697;-76
2022/11/06 22:51:29;;;;;;;0.40;0.40;;;21.60;64.80;;;21.61;47.34;94731.06;4886472;29;20656;-76
2022/11/06 22:53:57;;;;;;;0.45;0.45;;;21.60;64.80;;;21.60;47.25;94730.25;4901821;29;20311;-76
2022/11/06 22:56:26;;;;;;;0.40;0.40;;;21.60;64.70;;;21.57;47.11;94730.78;4901846;29;20302;-76
2022/11/06 22:59:07;;;;;;;0.40;0.40;;;21.60;64.70;;;21.55;47.14;94732.88;4901727;29;20204;-76
2022/11/06 23:01:36;;;;;;;0.40;0.40;;;21.60;64.70;;;21.61;47.06;94747.06;4901938;29;20198;-76
2022/11/06 23:04:13;;;;;;;0.40;0.40;;;21.50;64.70;;;21.58;46.84;94751.06;4916705;29;20304;-76
2022/11/06 23:06:44;;;;;;;0.50;0.50;;;21.60;64.70;;;21.58;47.22;94751.06;4902098;29;20525;-76
2022/11/06 23:09:12;;;;;;;0.40;0.40;;;21.50;64.60;;;21.58;47.06;94748.38;4917259;29;20251;-76
2022/11/06 23:11:39;;;;;;;0.40;0.40;;;21.50;64.60;;;21.58;46.92;94751.88;4901644;29;20202;-76
2022/11/06 23:14:06;;;;;;;0.40;0.40;;;21.50;64.70;;;21.58;47.24;94743.03;4917020;29;20561;-76
2022/11/06 23:19:23;;;;;;;0.40;0.40;;;21.50;64.70;;;21.56;47.28;94748.66;4901571;29;20186;-76
2022/11/06 23:21:51;;;;;;;0.30;0.30;;;21.50;64.70;;;21.57;47.15;94754.81;4901338;29;20696;-76
2022/11/06 23:24:18;;;;;;;0.50;0.50;;;21.50;64.60;;;21.56;47.11;94748.66;4901009;29;20204;-76
2022/11/06 23:26:46;;;;;;;0.40;0.40;;;21.50;64.70;;;21.52;47.15;94750.22;4901592;29;20548;-76
2022/11/06 23:29:13;;;;;;;0.40;0.40;;;21.50;64.60;;;21.56;47.18;94748.66;4901264;29;20554;-76
2022/11/06 23:31:40;;;;;;;0.38;0.38;;;21.50;64.60;;;21.56;47.12;94745.16;4902262;29;20279;-76
2022/11/06 23:34:07;;;;;;;0.30;0.30;;;21.50;64.60;;;21.55;46.92;94747.03;4916771;29;20216;-76
2022/11/06 23:36:35;;;;;;;0.40;0.40;;;21.50;64.70;;;21.56;46.63;94758.50;4916896;29;20684;-76
2022/11/06 23:39:02;;;;;;;0.40;0.40;;;21.50;64.70;;;21.53;46.86;94745.69;4885444;29;20214;-76
2022/11/06 23:41:41;;;;;;;0.40;0.40;;;21.50;64.70;;;21.55;47.23;94749.69;4901149;29;20635;-76
2022/11/06 23:45:47;;;;;;;0.45;0.45;;;21.50;64.70;;;21.51;46.91;94740.63;4901349;29;20200;-76
2022/11/06 23:46:56;;;;;;;0.40;0.40;;;21.50;64.60;;;21.53;47.01;94745.69;4916712;29;20196;-77
2022/11/06 23:49:25;;;;;;;0.40;0.40;;;21.50;64.60;;;21.51;47.15;94739.84;4916527;29;20234;-76
2022/11/06 23:51:52;;;;;;;0.40;0.40;;;21.50;65.50;;;21.52;46.72;94755.56;4885421;29;20211;-76
2022/11/06 23:54:20;;;;;;;0.50;0.50;;;21.50;64.50;;;21.53;46.90;94753.69;4900833;29;20214;-76
2022/11/06 23:56:47;;;;;;;0.40;0.40;;;21.50;64.60;;;21.51;46.84;94753.19;4900869;29;20593;-76
2022/11/06 23:59:14;;;;;;;0.40;0.40;;;21.50;64.50;;;21.49;46.88;94742.75;4900702;29;20620;-76
